Cobb County-Mc Collum Field
KRYY : now visible

Airfield :











YOU CAN JOIN US ON...

 
LOGIN :

Register | Disclaimer

   EN    FR    IT 

 









Legend :    VFR   Marginal VFR   IFR   Intensive IFR   Very Intensive IFR
Visi :
Ceiling :
>= 8 km
>= 3000ft
5 to 8 km
1000 to 3000 ft
1500m to 5 km
500 to 1000 ft
800 to 1500m
200 to 500 ft
< 800m
< 200 ft
Symbols :   Thunderstorms  Fog  Heavy snow  Heavy precipitations  Wind > 20 kt






- Airport Elevation : 1040 ft


KRYY - Cobb County-Mc Collum Field

CURRENT METAR :
  • 090250Z 10011G18KT 10SM BKN026 10/00 A3020 RMK AO2 SLP946 6//// T01000000 58001 PNO $

EXPIRED METARs :
  • 090150Z 09010G15KT 10SM OVC028 10/01 A3020 RMK AO2 SLP949 T01000006 PNO $
  • 090050Z 09011G18KT 10SM BKN031 OVC039 11/01 A3020 RMK AO2 SLP947 T01060006 PNO $

TAF KRYY
Valid from the 09 at 02:00 until the 10 at 00:00 UTC


090154Z 0902/0924 09010KT P6SM VCSH BKN025 OVC050
TEMPO 0907/0911 6SM -RADZ BR SCT008 OVC015
FM091100 12008KT 6SM -RADZ BR OVC008
FM091500 14008KT 4SM -RADZ BR OVC004
FM091800 16008KT P6SM SCT004 OVC010
FM092000 19009KT P6SM SCT010 OVC020



MET'MAP, your aeronautical weather chart ! - Copyright ORBIFLY December 2007 - Disclaimer

ORBIFLY MET'MAP TEAM :

Programming & Development : Alexandra Zaïnal
Concept & original design : Baudouin d'Aumeries
Assistance for programming : Marc-Olivier Méhu
Technical & hardware support : Manuel Goepfert

Contact : metmap@orbifly.com




SOURCES & CREDITS :

   NOAA       Earth
Advisory